Time;durP1;ratioP1;P1;durP2;ratioP2;P2;SDS_P1;SDS_P2;PMS_P1;PMS_P2;Temp;Humidity;BMP_temperature;BMP_pressure;BME280_temperature;BME280_humidity;BME280_pressure;Samples;Min_cycle;Max_cycle;Signal;HPM_P1;HPM_P2
2022/10/26 00:01:10;;;;;;;17.60;8.90;;;;;;;12.50;88.28;98808.39;102378;1299;75992;-23
2022/10/26 00:03:39;;;;;;;15.00;7.90;;;;;;;12.29;89.53;98805.98;102039;1299;73170;-23
2022/10/26 00:06:18;;;;;;;13.10;7.40;;;;;;;12.13;90.85;98807.12;102190;1301;62749;-23
2022/10/26 00:08:45;;;;;;;9.40;7.00;;;;;;;12.48;89.62;98809.84;102131;1295;61320;-23
2022/10/26 00:11:14;;;;;;;11.60;7.20;;;;;;;12.81;87.75;98808.35;102353;1292;75475;-23
2022/10/26 00:13:43;;;;;;;12.10;6.90;;;;;;;12.62;87.84;98807.48;102308;1302;75769;-22
2022/10/26 00:16:13;;;;;;;11.90;8.70;;;;;;;12.39;89.00;98807.16;102259;1299;73209;-23
2022/10/26 00:18:40;;;;;;;11.20;6.10;;;;;;;12.21;90.25;98810.00;102201;1297;63652;-23
2022/10/26 00:21:08;;;;;;;11.80;8.00;;;;;;;12.55;89.12;98807.22;102351;1297;61663;-23
2022/10/26 00:23:36;;;;;;;14.10;7.80;;;;;;;12.68;87.91;98801.91;102359;1299;75364;-23
2022/10/26 00:26:04;;;;;;;15.40;8.70;;;;;;;12.41;89.12;98803.18;102353;1298;75829;-23
2022/10/26 00:28:33;;;;;;;13.60;9.40;;;;;;;12.35;89.36;98801.27;102089;1299;74272;-23
2022/10/26 00:31:01;;;;;;;12.50;6.60;;;;;;;12.25;90.38;98797.88;102283;1298;64680;-23
2022/10/26 00:33:29;;;;;;;10.20;7.10;;;;;;;12.80;88.37;98800.21;102118;1301;62192;-23
2022/10/26 00:35:57;;;;;;;10.60;6.90;;;;;;;12.99;86.43;98796.20;102241;1296;75497;-23
2022/10/26 00:38:25;;;;;;;17.10;8.60;;;;;;;12.60;87.50;98806.98;102348;1298;75707;-23
2022/10/26 00:40:52;;;;;;;13.30;9.10;;;;;;;12.36;89.28;98803.62;102395;1299;74342;-23
2022/10/26 00:43:20;;;;;;;11.10;7.60;;;;;;;12.18;90.48;98805.80;102326;1297;62406;-23
2022/10/26 00:45:50;;;;;;;11.10;7.90;;;;;;;12.58;89.20;98803.86;102377;1291;61564;-23
2022/10/26 00:48:28;;;;;;;13.10;10.10;;;;;;;12.92;87.27;98799.92;102351;1292;75241;-24
2022/10/26 00:50:57;;;;;;;14.30;8.80;;;;;;;12.63;88.08;98798.34;102215;1294;75812;-23
2022/10/26 00:53:27;;;;;;;16.30;10.10;;;;;;;12.43;89.18;98800.05;102158;1298;74280;-23
2022/10/26 00:55:54;;;;;;;10.90;7.90;;;;;;;12.23;90.52;98802.75;102388;1298;62354;-23
2022/10/26 00:58:23;;;;;;;12.90;8.10;;;;;;;12.66;89.65;98801.38;102151;1285;61141;-23
2022/10/26 01:00:51;;;;;;;12.90;8.70;;;;;;;12.90;87.50;98796.44;102159;1299;75329;-23
2022/10/26 01:03:18;;;;;;;14.00;10.10;;;;;;;12.72;87.98;98797.86;102150;1299;75726;-23
2022/10/26 01:05:47;;;;;;;13.00;9.10;;;;;;;12.61;88.46;98800.25;102212;1300;74221;-23
2022/10/26 01:08:15;;;;;;;15.30;7.30;;;;;;;12.52;88.83;98799.69;102063;1293;63409;-23
2022/10/26 01:10:44;;;;;;;10.80;7.10;;;;;;;12.89;87.92;98803.60;101996;1304;61626;-23
2022/10/26 01:13:13;;;;;;;11.00;8.20;;;;;;;13.18;85.99;98805.86;102392;1299;75488;-23
2022/10/26 01:16:04;;;;;;;13.90;9.10;;;;;;;13.06;85.89;98804.19;102366;1298;74810;-23
2022/10/26 01:18:48;;;;;;;14.00;9.90;;;;;;;12.82;86.78;98803.14;102318;1298;74085;-23
2022/10/26 01:21:46;;;;;;;10.50;6.30;;;;;;;12.63;87.92;98804.42;102184;1298;63516;-23
2022/10/26 01:24:51;;;;;;;12.40;8.50;;;;;;;13.01;86.73;98808.84;102379;1298;61756;-23
2022/10/26 01:27:27;;;;;;;12.80;9.80;;;;;;;12.96;86.24;98807.06;102381;1299;75220;-23
2022/10/26 01:30:17;;;;;;;17.50;10.60;;;;;;;12.57;88.36;98817.46;102263;1299;76330;-23
2022/10/26 01:33:06;;;;;;;9.90;7.10;;;;;;;12.32;89.51;98820.86;102213;1299;72386;-23
2022/10/26 01:35:42;;;;;;;11.80;8.50;;;;;;;12.35;89.84;98820.55;102368;1298;61942;-23
2022/10/26 01:38:47;;;;;;;12.60;8.70;;;;;;;12.62;88.43;98819.46;102181;1295;61161;-23
2022/10/26 01:41:16;;;;;;;15.10;9.80;;;;;;;12.57;88.34;98823.42;102225;1294;75418;-23
2022/10/26 01:44:08;;;;;;;17.60;10.60;;;;;;;12.30;89.69;98823.86;102386;1298;75832;-23
2022/10/26 01:46:38;;;;;;;16.70;9.20;;;;;;;12.09;91.59;98820.34;102201;1301;74241;-23
2022/10/26 01:49:07;;;;;;;14.80;10.20;;;;;;;12.37;90.57;98821.64;102159;1302;62109;-23
2022/10/26 01:51:38;;;;;;;15.40;10.90;;;;;;;12.38;90.52;98818.04;102177;1302;61690;-23
2022/10/26 01:54:06;;;;;;;18.30;11.60;;;;;;;12.23;91.17;98825.16;102081;1301;74813;-23
2022/10/26 01:56:37;;;;;;;15.10;10.20;;;;;;;12.10;92.05;98823.03;102166;1301;76143;-23
2022/10/26 01:59:16;;;;;;;15.10;11.40;;;;;;;12.35;91.24;98819.66;102178;1295;74249;-24
2022/10/26 02:01:47;;;;;;;20.80;12.40;;;;;;;12.49;90.03;98822.45;102191;1298;61721;-23
2022/10/26 02:04:46;;;;;;;20.70;10.90;;;;;;;12.47;89.85;98825.76;102250;1300;61604;-23
2022/10/26 02:07:20;;;;;;;13.50;8.50;;;;;;;12.22;90.99;98831.14;102233;1294;75548;-23
2022/10/26 02:10:04;;;;;;;13.10;9.00;;;;;;;12.31;90.94;98830.20;102352;1299;75998;-23
2022/10/26 02:12:37;;;;;;;;;;;;;;;12.49;89.51;98833.04;102291;1298;73905;-23
2022/10/26 02:15:19;;;;;;;11.60;7.50;;;;;;;12.50;88.90;98834.16;102211;1299;61714;-24
2022/10/26 02:17:53;;;;;;;15.70;9.00;;;;;;;12.33;89.03;98834.54;102203;1295;62031;-24
2022/10/26 02:20:24;;;;;;;12.40;7.80;;;;;;;12.18;90.01;98831.55;101935;1298;75470;-23
2022/10/26 02:22:54;;;;;;;12.60;7.40;;;;;;;12.50;88.55;98832.06;102215;1301;75603;-23
2022/10/26 02:25:23;;;;;;;11.20;7.30;;;;;;;12.72;86.99;98830.62;102078;1291;74427;-23
2022/10/26 02:27:55;;;;;;;11.30;8.60;;;;;;;12.65;86.48;98828.77;102042;1299;61756;-23
2022/10/26 02:30:23;;;;;;;12.40;8.40;;;;;;;12.35;87.75;98831.05;102032;1299;61098;-23
2022/10/26 02:32:52;;;;;;;10.10;6.70;;;;;;;12.18;88.81;98831.17;102361;1299;75535;-23
2022/10/26 02:35:22;;;;;;;10.70;7.00;;;;;;;12.59;87.72;98831.23;102153;1302;75802;-23
2022/10/26 02:37:50;;;;;;;13.90;7.30;;;;;;;12.88;86.09;98833.28;102004;1299;74304;-23
2022/10/26 02:40:20;;;;;;;13.20;7.40;;;;;;;12.78;86.06;98834.91;102273;1298;61806;-23
2022/10/26 02:42:51;;;;;;;15.10;7.10;;;;;;;12.56;86.95;98839.91;102036;1294;61753;-24
2022/10/26 02:45:24;;;;;;;13.10;8.00;;;;;;;12.26;88.89;98840.92;102220;1294;75227;-23
2022/10/26 02:47:52;;;;;;;11.80;7.70;;;;;;;12.51;88.43;98840.21;102021;1301;76027;-23
2022/10/26 02:50:21;;;;;;;10.10;7.00;;;;;;;12.79;86.88;98844.95;102092;1291;74502;-24
2022/10/26 02:52:50;;;;;;;13.20;8.30;;;;;;;12.70;86.51;98845.35;102052;1291;61976;-23
2022/10/26 02:55:24;;;;;;;11.80;7.80;;;;;;;12.41;87.59;98843.35;102229;1302;61898;-24
2022/10/26 02:57:54;;;;;;;11.10;6.30;;;;;;;12.22;88.67;98842.48;101973;1300;75383;-23
2022/10/26 03:00:23;;;;;;;11.30;6.50;;;;;;;12.39;87.73;98843.19;101922;1303;75936;-24
2022/10/26 03:02:53;;;;;;;11.80;6.60;;;;;;;12.50;86.21;98843.20;102093;1297;74763;-24
2022/10/26 03:05:27;;;;;;;8.00;5.50;;;;;;;12.29;86.49;98842.04;101940;1299;61708;-24
2022/10/26 03:07:55;;;;;;;11.20;5.90;;;;;;;12.10;87.37;98845.11;102080;1297;61855;-25
2022/10/26 03:10:24;;;;;;;8.00;4.90;;;;;;;11.94;88.71;98845.00;102067;1298;75327;-25
2022/10/26 03:12:52;;;;;;;6.80;4.70;;;;;;;12.48;86.49;98846.70;102010;1295;75931;-24
2022/10/26 03:15:20;;;;;;;6.50;5.00;;;;;;;12.58;85.61;98847.23;102121;1301;74740;-25
2022/10/26 03:17:47;;;;;;;7.80;5.40;;;;;;;12.47;85.83;98851.33;102245;1298;61467;-24
2022/10/26 03:20:16;;;;;;;8.70;5.50;;;;;;;12.24;86.96;98852.37;102130;1296;61817;-25
2022/10/26 03:22:46;;;;;;;8.10;4.80;;;;;;;12.18;87.57;98853.48;102286;1298;75240;-26
2022/10/26 03:25:16;;;;;;;8.10;5.30;;;;;;;12.53;86.08;98854.11;101977;1284;75264;-25
2022/10/26 03:27:43;;;;;;;8.10;5.10;;;;;;;12.68;84.79;98854.67;102061;1302;74199;-25
2022/10/26 03:30:11;;;;;;;8.50;4.80;;;;;;;12.59;84.38;98848.66;102231;1292;62117;-25
2022/10/26 03:32:39;;;;;;;5.30;4.30;;;;;;;12.23;85.03;98845.04;102293;1298;61667;-24
2022/10/26 03:35:07;;;;;;;7.20;3.60;;;;;;;12.03;85.69;98847.52;102302;1298;75515;-25
2022/10/26 03:37:34;;;;;;;6.60;3.20;;;;;;;12.22;84.23;98839.67;102327;1302;75815;-25
2022/10/26 03:40:06;;;;;;;8.40;3.80;;;;;;;12.32;83.01;98841.59;102323;1298;73205;-25
2022/10/26 03:42:35;;;;;;;7.00;3.30;;;;;;;12.04;83.70;98847.06;101970;1299;61901;-25
2022/10/26 03:45:05;;;;;;;5.60;3.40;;;;;;;11.87;83.99;98844.58;101052;1301;1308216;-25
2022/10/26 03:47:33;;;;;;;6.40;3.20;;;;;;;11.59;84.97;98843.90;102063;1296;75522;-25
2022/10/26 03:50:00;;;;;;;7.10;3.40;;;;;;;11.73;84.74;98844.40;102365;1298;75701;-25
2022/10/26 03:52:28;;;;;;;4.10;3.30;;;;;;;11.85;83.99;98843.20;102062;1294;74230;-25
2022/10/26 03:54:56;;;;;;;5.30;3.50;;;;;;;11.79;84.23;98843.02;102194;1298;61881;-25
2022/10/26 03:57:23;;;;;;;5.30;3.60;;;;;;;11.54;84.86;98843.49;102192;1298;61750;-25
2022/10/26 03:59:51;;;;;;;7.90;3.00;;;;;;;11.32;85.75;98846.95;102219;1291;75349;-25
2022/10/26 04:02:19;;;;;;;5.30;3.60;;;;;;;11.57;85.82;98846.84;102212;1291;75793;-25
2022/10/26 04:04:47;;;;;;;8.20;3.70;;;;;;;11.80;84.44;98853.91;102241;1298;74280;-25
2022/10/26 04:07:15;;;;;;;7.30;3.90;;;;;;;11.68;84.36;98854.09;102210;1298;61798;-25
2022/10/26 04:09:42;;;;;;;4.50;3.60;;;;;;;11.42;84.67;98853.39;102228;1293;61752;-25
2022/10/26 04:12:11;;;;;;;4.50;2.80;;;;;;;11.09;86.50;98857.31;102275;1298;75441;-25
2022/10/26 04:14:38;;;;;;;5.00;3.70;;;;;;;11.21;86.18;98859.36;102239;1299;75835;-25
2022/10/26 04:17:06;;;;;;;10.00;3.70;;;;;;;11.43;85.48;98860.79;102295;1298;74361;-25
2022/10/26 04:19:36;;;;;;;6.90;4.10;;;;;;;11.35;85.95;98861.09;102259;1292;61814;-25
2022/10/26 04:22:04;;;;;;;8.60;4.40;;;;;;;11.18;87.45;98860.52;102153;1302;61820;-25
2022/10/26 04:24:31;;;;;;;4.50;2.90;;;;;;;11.06;88.57;98862.39;102428;1291;75377;-25
2022/10/26 04:26:59;;;;;;;5.50;3.10;;;;;;;11.51;87.17;98863.06;102362;1298;75905;-25
2022/10/26 04:29:26;;;;;;;4.80;3.20;;;;;;;11.85;85.42;98866.29;102351;1298;73241;-25
2022/10/26 04:31:54;;;;;;;6.20;3.80;;;;;;;11.83;85.25;98865.25;102266;1291;61485;-25
2022/10/26 04:34:22;;;;;;;8.70;3.70;;;;;;;11.63;86.28;98867.16;102344;1295;61906;-24
2022/10/26 04:36:50;;;;;;;5.40;4.10;;;;;;;11.47;86.74;98867.34;102220;1298;75218;-25
2022/10/26 04:39:20;;;;;;;4.80;3.70;;;;;;;11.42;87.50;98869.17;102002;1301;75658;-26
2022/10/26 04:41:48;;;;;;;4.40;3.60;;;;;;;11.70;86.28;98867.46;102159;1298;72204;-25
2022/10/26 04:44:15;;;;;;;6.10;3.90;;;;;;;11.76;85.85;98863.98;102301;1293;61762;-25
2022/10/26 04:46:43;;;;;;;11.90;4.60;;;;;;;11.76;85.82;98870.94;102292;1298;61655;-25
2022/10/26 04:49:10;;;;;;;8.30;5.00;;;;;;;11.65;86.07;98870.62;102359;1290;74488;-25
2022/10/26 04:51:38;;;;;;;3.60;2.90;;;;;;;11.42;87.27;98870.48;102360;1291;75564;-25
2022/10/26 04:54:06;;;;;;;5.00;3.60;;;;;;;11.67;86.96;98873.06;102374;1291;74109;-25
2022/10/26 04:56:34;;;;;;;6.70;3.80;;;;;;;12.02;85.35;98872.84;102338;1291;61945;-25
2022/10/26 04:59:02;;;;;;;4.80;4.00;;;;;;;11.89;85.08;98877.61;102355;1297;61635;-25
2022/10/26 05:01:35;;;;;;;8.40;3.90;;;;;;;11.62;86.31;98875.23;102194;1294;75241;-25
2022/10/26 05:04:03;;;;;;;4.30;2.70;;;;;;;11.47;87.24;98881.31;102355;1299;75639;-25
2022/10/26 05:06:31;;;;;;;6.90;4.30;;;;;;;11.74;86.47;98883.80;102329;1298;73358;-26
2022/10/26 05:08:58;;;;;;;7.10;3.80;;;;;;;11.93;85.27;98886.28;102327;1291;61797;-25
2022/10/26 05:11:26;;;;;;;7.10;4.40;;;;;;;11.88;85.31;98889.36;102318;1299;61795;-25
2022/10/26 05:13:54;;;;;;;6.30;3.90;;;;;;;11.80;85.54;98892.55;102388;1292;75443;-25
2022/10/26 05:16:22;;;;;;;5.60;3.20;;;;;;;11.65;86.40;98889.79;102312;1299;75961;-25
2022/10/26 05:18:51;;;;;;;8.20;4.60;;;;;;;11.97;85.50;98890.66;102251;1298;74140;-25
2022/10/26 05:21:18;;;;;;;7.10;3.90;;;;;;;12.18;84.22;98897.66;102278;1291;61810;-25
2022/10/26 05:24:06;;;;;;;7.40;4.60;;;;;;;12.03;84.52;98900.56;102113;1293;61828;-25
2022/10/26 05:26:39;;;;;;;5.10;4.20;;;;;;;11.77;85.88;98907.14;102091;1301;74796;-25
2022/10/26 05:29:07;;;;;;;5.60;4.30;;;;;;;11.69;86.61;98907.69;102320;1298;75791;-26
2022/10/26 05:31:34;;;;;;;10.90;4.80;;;;;;;12.07;85.25;98915.39;102006;1299;74243;-25
2022/10/26 05:34:02;;;;;;;7.80;4.10;;;;;;;11.90;85.40;98910.73;102195;1298;61973;-25
2022/10/26 05:36:30;;;;;;;5.60;4.60;;;;;;;11.68;86.28;98910.93;102224;1291;61680;-25
2022/10/26 05:38:58;;;;;;;4.60;3.40;;;;;;;11.47;87.64;98921.79;102149;1299;75409;-25
2022/10/26 05:41:26;;;;;;;7.40;4.30;;;;;;;11.66;87.08;98918.94;102296;1298;75971;-25
2022/10/26 05:43:53;;;;;;;7.60;4.40;;;;;;;11.91;85.78;98920.07;102223;1298;74041;-25
2022/10/26 05:46:21;;;;;;;7.10;5.00;;;;;;;11.74;86.39;98925.02;102176;1291;61821;-24
2022/10/26 05:48:49;;;;;;;13.00;5.50;;;;;;;11.59;87.04;98929.64;102196;1298;61818;-24
2022/10/26 05:51:19;;;;;;;5.30;4.30;;;;;;;11.18;89.35;98931.55;102242;1291;74425;-24
2022/10/26 05:53:47;;;;;;;6.40;4.80;;;;;;;11.49;88.24;98929.45;102312;1291;75839;-24
2022/10/26 05:56:19;;;;;;;9.00;4.80;;;;;;;11.57;87.61;98934.66;102142;1298;74233;-24
2022/10/26 05:58:47;;;;;;;7.00;5.00;;;;;;;11.49;88.00;98942.82;102066;1302;61675;-24
2022/10/26 06:01:34;;;;;;;5.80;4.60;;;;;;;11.34;89.15;98938.86;102006;1299;61155;-24
2022/10/26 06:04:10;;;;;;;6.10;4.20;;;;;;;11.42;89.63;98945.38;102180;1299;75355;-23
2022/10/26 06:06:43;;;;;;;6.60;5.10;;;;;;;11.80;87.55;98945.16;101995;1301;75731;-24
2022/10/26 06:09:12;;;;;;;7.70;5.50;;;;;;;11.78;87.28;98947.24;101954;1296;73387;-24
2022/10/26 06:11:40;;;;;;;9.50;5.70;;;;;;;11.68;87.84;98947.56;102153;1294;61261;-24
2022/10/26 06:14:10;;;;;;;7.80;5.10;;;;;;;11.53;88.98;98950.15;101985;1301;61882;-24
2022/10/26 06:17:02;;;;;;;9.00;4.20;;;;;;;11.82;88.12;98954.91;101906;1300;75472;-24
2022/10/26 06:19:36;;;;;;;9.90;5.50;;;;;;;12.04;87.00;98956.98;102068;1301;75596;-24
2022/10/26 06:22:08;;;;;;;8.70;5.30;;;;;;;11.90;87.28;98956.17;102276;1298;73283;-24
2022/10/26 06:24:49;;;;;;;7.10;4.30;;;;;;;11.73;88.52;98958.67;101987;1299;61808;-24
2022/10/26 06:27:43;;;;;;;7.60;5.20;;;;;;;11.96;87.97;98961.02;102040;1299;61769;-24
2022/10/26 06:30:11;;;;;;;12.10;5.40;;;;;;;12.14;86.58;98961.39;101971;1292;75494;-24
2022/10/26 06:32:40;;;;;;;8.20;5.90;;;;;;;12.07;86.48;98959.84;102010;1294;75819;-24
2022/10/26 06:35:30;;;;;;;8.90;6.10;;;;;;;11.90;87.27;98959.78;101932;1303;74179;-24
2022/10/26 06:38:00;;;;;;;7.60;4.50;;;;;;;11.78;87.84;98964.98;102076;1300;63536;-24
2022/10/26 06:40:30;;;;;;;8.30;5.30;;;;;;;12.19;86.57;98972.71;101999;1295;61810;-25
2022/10/26 06:42:58;;;;;;;9.70;5.40;;;;;;;12.16;86.08;98969.55;101898;1297;74623;-24
2022/10/26 06:45:26;;;;;;;11.90;6.70;;;;;;;12.00;86.90;98968.42;102054;1299;74661;-30
2022/10/26 06:48:09;;;;;;;9.40;5.00;;;;;;;11.81;88.21;98967.67;102383;1291;74202;-24
2022/10/26 06:50:50;;;;;;;11.90;6.10;;;;;;;12.16;87.89;98975.04;102067;1294;61472;-26
2022/10/26 06:53:30;;;;;;;8.00;5.20;;;;;;;12.33;86.06;98980.70;102135;1298;62023;-25
2022/10/26 06:55:57;;;;;;;8.80;6.30;;;;;;;12.19;86.99;98983.20;102190;1301;74710;-25
2022/10/26 06:58:28;;;;;;;9.80;6.60;;;;;;;11.97;87.27;98977.42;102357;1295;75641;-25
2022/10/26 07:00:56;;;;;;;7.50;6.30;;;;;;;11.88;88.27;98977.91;102071;1297;74198;-26
2022/10/26 07:03:24;;;;;;;10.60;6.30;;;;;;;12.18;86.48;98983.81;102163;1298;61791;-25
2022/10/26 07:05:52;;;;;;;13.20;8.30;;;;;;;12.41;85.65;98988.71;102242;1298;61726;-26
2022/10/26 07:08:21;;;;;;;11.30;6.70;;;;;;;12.26;85.98;98988.67;102284;1298;75007;-25
2022/10/26 07:10:51;;;;;;;10.10;6.00;;;;;;;12.03;86.95;98990.30;102112;1295;75754;-26
2022/10/26 07:13:19;;;;;;;8.00;5.10;;;;;;;11.96;87.86;98992.48;102324;1297;74381;-26
2022/10/26 07:15:47;;;;;;;6.90;5.70;;;;;;;12.36;86.54;98994.08;102287;1299;61767;-25
2022/10/26 07:18:15;;;;;;;9.20;5.80;;;;;;;12.45;85.38;98994.30;102145;1294;61834;-26
2022/10/26 07:20:42;;;;;;;11.70;6.50;;;;;;;12.44;85.66;98994.00;102271;1291;75435;-26
2022/10/26 07:23:11;;;;;;;12.90;6.30;;;;;;;12.14;86.92;98990.02;102205;1292;75467;-26
2022/10/26 07:25:39;;;;;;;9.00;6.00;;;;;;;12.25;86.46;98994.86;102221;1291;74286;-26
2022/10/26 07:28:09;;;;;;;9.50;6.40;;;;;;;12.39;86.11;98999.31;102283;1298;61421;-26
2022/10/26 07:30:37;;;;;;;12.50;7.40;;;;;;;12.38;86.02;98999.09;102193;1302;61855;-26
2022/10/26 07:33:09;;;;;;;8.90;6.50;;;;;;;12.30;86.38;99000.30;102067;1300;74263;-25
2022/10/26 07:35:37;;;;;;;8.10;5.90;;;;;;;12.27;86.96;98998.19;101971;1297;75796;-26
2022/10/26 07:38:05;;;;;;;8.60;7.20;;;;;;;12.56;85.72;98998.91;102349;1298;73786;-25
2022/10/26 07:40:35;;;;;;;9.20;5.80;;;;;;;12.61;85.53;98997.20;102278;1292;61065;-26
2022/10/26 07:43:02;;;;;;;8.60;6.70;;;;;;;12.77;84.53;98992.96;102269;1302;61248;-26
2022/10/26 07:45:31;;;;;;;7.80;5.70;;;;;;;12.75;85.41;98990.54;102209;1299;75086;-25
2022/10/26 07:48:02;;;;;;;9.00;6.30;;;;;;;12.76;85.81;98990.46;102195;1301;75764;-25
2022/10/26 07:50:29;;;;;;;12.60;6.80;;;;;;;12.96;84.34;98990.23;102307;1298;74328;-26
2022/10/26 07:52:58;;;;;;;8.80;5.90;;;;;;;12.83;83.77;98993.14;102328;1298;61439;-25
2022/10/26 07:55:27;;;;;;;10.20;6.50;;;;;;;12.79;84.76;98992.60;102017;1298;61121;-25
2022/10/26 07:57:55;;;;;;;9.20;5.90;;;;;;;12.65;84.73;98995.11;102259;1291;75649;-25
2022/10/26 08:00:23;;;;;;;9.70;6.20;;;;;;;12.93;84.10;99000.77;102333;1291;74948;-26
2022/10/26 08:02:51;;;;;;;10.10;6.60;;;;;;;13.04;82.94;98997.95;102052;1294;74339;-25
2022/10/26 08:05:19;;;;;;;7.90;6.20;;;;;;;12.72;83.86;98996.70;102309;1291;61665;-26
2022/10/26 08:07:48;;;;;;;9.30;6.90;;;;;;;12.50;84.90;99001.99;102384;1299;61725;-25
2022/10/26 08:10:22;;;;;;;11.20;6.20;;;;;;;12.47;85.45;99004.77;102333;1298;74733;-25
2022/10/26 08:12:52;;;;;;;12.90;6.90;;;;;;;12.73;84.47;99003.75;102298;1291;75793;-25
2022/10/26 08:15:20;;;;;;;10.30;6.50;;;;;;;13.04;83.40;99011.48;102305;1298;74133;-24
2022/10/26 08:17:51;;;;;;;13.00;7.60;;;;;;;12.82;83.92;99014.95;102250;1298;61781;-25
2022/10/26 08:20:20;;;;;;;8.30;6.50;;;;;;;12.50;85.23;99012.61;101881;1297;61268;-25
2022/10/26 08:22:48;;;;;;;8.80;5.90;;;;;;;12.45;85.73;99012.55;102248;1298;77377;-25
2022/10/26 08:25:16;;;;;;;10.30;6.60;;;;;;;12.84;84.21;99019.84;102013;1298;75700;-25
2022/10/26 08:27:48;;;;;;;10.70;7.20;;;;;;;12.75;84.08;99022.62;102227;1291;73850;-25
2022/10/26 08:30:19;;;;;;;10.40;7.00;;;;;;;12.74;84.10;99022.70;102295;1300;61870;-25
2022/10/26 08:32:47;;;;;;;11.70;7.60;;;;;;;12.48;85.27;99020.08;102366;1292;63160;-25
2022/10/26 08:35:16;;;;;;;9.70;6.30;;;;;;;12.50;85.95;99025.50;102229;1298;74485;-25
2022/10/26 08:37:45;;;;;;;10.30;6.20;;;;;;;12.79;84.21;99023.77;102339;1292;75836;-25
2022/10/26 08:40:16;;;;;;;8.70;5.60;;;;;;;12.83;84.49;99025.20;102337;1298;74200;-25
2022/10/26 08:42:48;;;;;;;11.40;7.30;;;;;;;12.62;85.16;99027.64;102069;1297;61310;-25
2022/10/26 08:45:25;;;;;;;8.30;5.90;;;;;;;12.32;87.22;99028.01;102069;1301;61226;-26
2022/10/26 08:48:24;;;;;;;7.80;6.10;;;;;;;12.80;85.71;99033.27;102275;1299;75289;-26
2022/10/26 08:50:58;;;;;;;7.80;5.70;;;;;;;12.78;85.44;99033.51;102244;1301;75784;-25
2022/10/26 08:53:46;;;;;;;8.30;6.30;;;;;;;12.63;86.00;99036.71;102039;1295;73245;-26
2022/10/26 08:56:16;;;;;;;8.00;5.10;;;;;;;12.39;87.21;99037.60;102238;1302;61951;-25
2022/10/26 08:58:48;;;;;;;6.20;5.40;;;;;;;12.62;86.66;99045.67;102196;1301;61894;-25
2022/10/26 09:01:16;;;;;;;8.30;5.10;;;;;;;12.92;84.70;99043.73;102086;1294;75410;-25
2022/10/26 09:03:44;;;;;;;6.90;5.00;;;;;;;13.05;84.59;99045.02;102393;1291;75789;-26
2022/10/26 09:06:20;;;;;;;9.80;5.90;;;;;;;13.09;84.93;99047.42;101974;1299;74450;-25
2022/10/26 09:09:01;;;;;;;5.80;4.90;;;;;;;12.98;85.46;99051.90;102259;1299;63171;-25
2022/10/26 09:11:53;;;;;;;9.50;5.40;;;;;;;13.12;84.47;99052.50;102353;1291;61911;-25
2022/10/26 09:14:42;;;;;;;8.30;5.60;;;;;;;13.24;83.53;99048.31;102270;1298;75047;-26
2022/10/26 09:17:13;;;;;;;11.70;6.00;;;;;;;13.19;84.46;99052.89;102176;1294;75835;-24
2022/10/26 09:20:10;;;;;;;9.30;6.10;;;;;;;13.34;84.46;99056.46;102182;1293;74105;-23
2022/10/26 09:22:40;;;;;;;8.90;5.70;;;;;;;13.23;84.25;99062.98;102268;1294;61607;-25
2022/10/26 09:25:16;;;;;;;7.30;5.60;;;;;;;13.26;83.78;99061.73;102145;1294;61903;-25
2022/10/26 09:27:48;;;;;;;10.30;6.50;;;;;;;13.26;84.31;99061.20;102015;1295;75297;-23
2022/10/26 09:30:19;;;;;;;7.20;6.30;;;;;;;13.04;84.15;99053.89;102089;1301;75792;-22
2022/10/26 09:32:51;;;;;;;7.60;5.90;;;;;;;12.71;85.47;99060.39;102146;1294;74193;-24
2022/10/26 09:35:43;;;;;;;7.60;5.80;;;;;;;12.60;86.09;99054.91;102013;1299;62012;-26
2022/10/26 09:38:30;;;;;;;14.70;6.60;;;;;;;12.82;85.31;99065.67;101945;1304;61967;-25
2022/10/26 09:41:24;;;;;;;10.00;6.70;;;;;;;12.72;85.90;99070.80;102210;1299;75306;-22
2022/10/26 09:51:37;;;;;;;10.30;7.20;;;;;;;13.08;85.80;99076.98;99281;1328;599305;-22
2022/10/26 09:54:12;;;;;;;11.80;7.60;;;;;;;13.08;85.74;99075.35;101365;1312;61627;-22
2022/10/26 09:56:40;;;;;;;12.50;7.00;;;;;;;13.17;85.46;99075.75;101319;1312;62605;-21
2022/10/26 09:59:08;;;;;;;11.80;6.90;;;;;;;13.51;84.66;99073.94;101310;1315;74256;-22
2022/10/26 10:01:37;;;;;;;6.90;5.80;;;;;;;13.76;82.91;99071.19;101353;1318;76759;-21
2022/10/26 10:04:11;;;;;;;11.70;6.90;;;;;;;13.83;81.26;99064.52;100391;1312;1380959;-22
2022/10/26 10:06:40;;;;;;;10.80;8.30;;;;;;;13.49;82.46;99072.45;101360;1312;61542;-22
2022/10/26 10:09:13;;;;;;;10.20;7.00;;;;;;;13.33;82.89;99072.40;101447;1304;62812;-21
2022/10/26 10:12:01;;;;;;;11.00;6.30;;;;;;;13.37;82.29;99070.08;101405;1308;74587;-22
2022/10/26 10:14:31;;;;;;;9.00;6.20;;;;;;;13.67;81.50;99071.04;101419;1308;76108;-22
2022/10/26 10:17:09;;;;;;;9.30;6.10;;;;;;;13.68;81.57;99074.95;101364;1310;75012;-22
2022/10/26 10:19:37;;;;;;;9.20;5.50;;;;;;;13.84;80.10;99069.45;101398;1308;61707;-22
2022/10/26 10:22:18;;;;;;;8.00;6.20;;;;;;;13.55;80.73;99068.80;101686;1301;61803;-22
2022/10/26 10:24:53;;;;;;;9.00;5.50;;;;;;;13.34;82.57;99068.44;101369;1311;75601;-22
2022/10/26 10:27:22;;;;;;;8.80;4.90;;;;;;;13.97;80.83;99070.14;101298;1314;75933;-22
2022/10/26 10:29:56;;;;;;;7.90;5.10;;;;;;;13.78;79.18;99068.59;101593;1309;75301;-22
2022/10/26 10:32:30;;;;;;;6.00;3.90;;;;;;;13.82;79.17;99074.34;101317;1313;63048;-21
2022/10/26 10:35:22;;;;;;;5.10;4.20;;;;;;;13.66;79.82;99076.36;101307;1310;61167;-22
2022/10/26 10:37:49;;;;;;;;;;;;;;;13.40;81.10;99078.70;101409;1311;75395;-22
2022/10/26 10:40:20;;;;;;;8.30;3.50;;;;;;;13.48;81.10;99083.42;101335;1308;75678;-22
2022/10/26 10:42:48;;;;;;;4.60;3.60;;;;;;;13.64;80.11;99070.08;101349;1312;75033;-22
2022/10/26 10:45:23;;;;;;;7.00;4.70;;;;;;;13.82;78.37;99071.21;101357;1311;61796;-22
2022/10/26 10:48:24;;;;;;;7.30;4.70;;;;;;;13.74;79.35;99085.52;101253;1310;61221;-23
2022/10/26 10:51:00;;;;;;;6.40;4.50;;;;;;;13.35;79.01;99077.06;100948;1314;75551;-23
2022/10/26 10:53:35;;;;;;;6.20;4.30;;;;;;;13.11;79.44;99077.05;101297;1310;75578;-23
2022/10/26 10:56:39;;;;;;;6.70;4.20;;;;;;;13.23;80.32;99084.80;101145;1315;74034;-23
2022/10/26 10:59:22;;;;;;;7.90;4.00;;;;;;;13.69;78.19;99082.35;101369;1310;61495;-23
2022/10/26 11:02:03;;;;;;;6.10;3.70;;;;;;;13.88;77.44;99089.98;101115;1311;61150;-23
2022/10/26 11:04:54;;;;;;;6.50;3.80;;;;;;;13.67;77.76;99094.04;101354;1311;75615;-23
2022/10/26 11:07:22;;;;;;;7.80;4.90;;;;;;;13.13;79.22;99096.52;101293;1310;76962;-23
2022/10/26 11:09:49;;;;;;;6.40;4.10;;;;;;;12.95;80.05;99094.33;101312;1312;75239;-23
2022/10/26 11:12:20;;;;;;;4.30;3.30;;;;;;;13.09;79.89;99093.90;101294;1309;62977;-23
2022/10/26 11:14:53;;;;;;;14.70;4.40;;;;;;;13.29;78.19;99092.08;101036;1304;62865;-23
2022/10/26 11:17:30;;;;;;;6.90;3.90;;;;;;;13.46;77.64;99093.17;101014;1310;75333;-24
2022/10/26 11:20:05;;;;;;;8.60;4.70;;;;;;;13.30;77.59;99088.34;101185;1314;75586;-23
2022/10/26 11:22:41;;;;;;;6.80;4.80;;;;;;;13.05;79.08;99095.65;101135;1314;75268;-23
2022/10/26 11:25:16;;;;;;;5.60;3.90;;;;;;;12.87;81.83;99095.93;100879;1312;64313;-23
2022/10/26 11:27:49;;;;;;;6.60;4.30;;;;;;;13.07;82.47;99104.16;101707;1305;62929;-22
2022/10/26 11:30:24;;;;;;;4.80;3.80;;;;;;;13.20;81.62;99099.74;101523;1309;75419;-21
2022/10/26 11:33:07;;;;;;;4.90;3.70;;;;;;;12.89;82.71;99095.85;101861;1306;76609;-21
2022/10/26 11:35:41;;;;;;;6.20;4.60;;;;;;;12.80;83.97;99100.00;101847;1305;75269;-21
2022/10/26 11:38:33;;;;;;;8.20;4.40;;;;;;;12.70;84.45;99098.98;101823;1307;63338;-21
2022/10/26 11:41:26;;;;;;;5.80;4.30;;;;;;;13.10;83.04;99099.96;101873;1302;61856;-21
2022/10/26 11:44:19;;;;;;;4.90;4.40;;;;;;;13.05;83.22;99099.35;101717;1308;75591;-21
2022/10/26 11:46:59;;;;;;;8.20;5.10;;;;;;;12.95;84.20;99096.59;101869;1304;76761;-21
2022/10/26 11:49:59;;;;;;;7.60;4.60;;;;;;;12.86;84.96;99097.06;101904;1305;75255;-22
2022/10/26 11:52:33;;;;;;;9.50;4.20;;;;;;;13.16;83.51;99096.39;101941;1304;62887;-21
2022/10/26 11:55:03;;;;;;;4.90;4.30;;;;;;;13.16;83.05;99096.64;101846;1307;62794;-22